Time;durP1;ratioP1;P1;durP2;ratioP2;P2;SDS_P1;SDS_P2;PMS_P1;PMS_P2;Temp;Humidity;BMP_temperature;BMP_pressure;BME280_temperature;BME280_humidity;BME280_pressure;Samples;Min_cycle;Max_cycle;Signal;HPM_P1;HPM_P2
2021/04/09 00:01:57;;;;;;;9.77;2.10;;;36.00;11.00;;;;;;5092792;28;20520;-59
2021/04/09 00:04:24;;;;;;;8.20;1.50;;;35.90;11.20;;;;;;5090435;28;20073;-59
2021/04/09 00:06:52;;;;;;;9.48;1.80;;;36.00;11.00;;;;;;5096457;28;20426;-58
2021/04/09 00:09:19;;;;;;;8.23;1.50;;;35.70;11.10;;;;;;5092194;28;20081;-59
2021/04/09 00:11:46;;;;;;;6.93;1.60;;;35.80;10.60;;;;;;5089745;28;20100;-59
2021/04/09 00:14:15;;;;;;;4.18;1.45;;;35.70;10.60;;;;;;5090832;28;20166;-57
2021/04/09 00:16:42;;;;;;;8.65;2.00;;;35.80;11.20;;;;;;5094980;28;20084;-58
2021/04/09 00:19:14;;;;;;;5.65;1.40;;;35.50;11.10;;;;;;5097244;28;20159;-58
2021/04/09 00:21:42;;;;;;;20.75;2.70;;;35.40;42.50;;;;;;5093820;28;20395;-57
2021/04/09 00:24:09;;;;;;;12.45;1.83;;;35.30;11.30;;;;;;5090651;28;20174;-59
2021/04/09 00:26:36;;;;;;;12.48;1.92;;;35.20;10.80;;;;;;5094275;28;20112;-59
2021/04/09 00:29:04;;;;;;;13.70;1.95;;;35.20;10.90;;;;;;5092021;28;20035;-61
2021/04/09 00:31:31;;;;;;;14.07;2.67;;;35.00;10.80;;;;;;5093707;28;20095;-54
2021/04/09 00:33:58;;;;;;;9.48;2.75;;;35.00;11.20;;;;;;5092800;28;20083;-56
2021/04/09 00:36:25;;;;;;;17.13;4.03;;;35.00;11.50;;;;;;5096778;28;20107;-58
2021/04/09 00:38:52;;;;;;;27.45;2.80;;;34.80;27.80;;;;;;5090427;28;20585;-58
2021/04/09 00:41:18;;;;;;;7.45;2.10;;;34.70;11.00;;;;;;5089356;28;20072;-60
2021/04/09 00:43:45;;;;;;;9.45;2.45;;;;;;;;;;5097084;28;20624;-57
2021/04/09 00:46:12;;;;;;;10.95;1.48;;;34.70;11.10;;;;;;5092772;28;20064;-60
2021/04/09 00:48:38;;;;;;;14.60;2.22;;;;;;;;;;5100579;28;20092;-58
2021/04/09 00:51:07;;;;;;;7.38;1.77;;;34.80;11.00;;;;;;5095722;28;20072;-60
2021/04/09 00:53:34;;;;;;;9.68;1.85;;;34.50;12.40;;;;;;5059480;28;20080;-58
2021/04/09 00:56:04;;;;;;;14.02;2.28;;;34.50;11.10;;;;;;5096890;28;20615;-59
2021/04/09 00:58:31;;;;;;;11.55;2.33;;;34.40;11.10;;;;;;5092300;28;20096;-59
2021/04/09 01:00:58;;;;;;;9.73;2.08;;;34.30;11.20;;;;;;5093514;28;20525;-59
2021/04/09 01:03:25;;;;;;;8.13;2.22;;;34.30;11.60;;;;;;5093185;28;20539;-60
2021/04/09 01:05:53;;;;;;;7.38;1.92;;;34.30;11.80;;;;;;5097476;28;20084;-57
2021/04/09 01:08:20;;;;;;;11.98;2.05;;;34.10;11.70;;;;;;5093830;28;20101;-58
2021/04/09 01:10:48;;;;;;;9.10;1.50;;;34.40;11.80;;;;;;5094628;28;20525;-58
2021/04/09 01:13:15;;;;;;;14.15;2.60;;;34.40;11.60;;;;;;5079092;28;20155;-55
2021/04/09 01:15:42;;;;;;;9.13;2.03;;;34.40;11.50;;;;;;5097117;28;20073;-56
2021/04/09 01:18:36;;;;;;;20.95;2.55;;;34.40;11.50;;;;;;5097171;28;20137;-55
2021/04/09 01:21:44;;;;;;;9.15;1.92;;;34.10;11.60;;;;;;5093378;28;20773;-58
2021/04/09 01:24:28;;;;;;;14.88;1.92;;;33.80;11.70;;;;;;5085069;28;20127;-58
2021/04/09 01:26:55;;;;;;;9.75;1.73;;;33.30;11.70;;;;;;5092270;28;20077;-60
2021/04/09 01:29:53;;;;;;;14.93;1.90;;;33.10;11.90;;;;;;5098797;28;20064;-58
2021/04/09 01:32:21;;;;;;;10.73;1.70;;;33.00;12.00;;;;;;5071489;28;20122;-56
2021/04/09 01:34:53;;;;;;;14.30;1.67;;;32.90;12.00;;;;;;5095471;28;20076;-57
2021/04/09 01:37:27;;;;;;;9.98;1.75;;;32.70;11.90;;;;;;5095275;28;20649;-58
2021/04/09 01:40:13;;;;;;;10.65;1.67;;;32.60;11.90;;;;;;5094325;28;20077;-58
2021/04/09 01:42:42;;;;;;;8.95;1.92;;;32.50;12.20;;;;;;5096489;28;20195;-58
2021/04/09 01:45:12;;;;;;;10.48;2.17;;;32.50;12.20;;;;;;5095944;28;20087;-57
2021/04/09 01:47:41;;;;;;;13.02;2.20;;;32.40;12.10;;;;;;5095655;28;20073;-62
2021/04/09 01:50:14;;;;;;;19.02;2.28;;;32.20;12.20;;;;;;5097350;28;20491;-61
2021/04/09 01:52:43;;;;;;;17.75;2.30;;;32.10;12.20;;;;;;5093295;28;20514;-58
2021/04/09 01:55:12;;;;;;;11.30;2.20;;;32.00;12.30;;;;;;5081695;28;20175;-58
2021/04/09 01:57:41;;;;;;;8.82;1.92;;;31.90;12.40;;;;;;5093485;28;20104;-56
2021/04/09 02:00:14;;;;;;;6.78;1.65;;;31.90;12.60;;;;;;5094253;28;20087;-59
2021/04/09 02:02:44;;;;;;;9.48;1.90;;;31.80;12.60;;;;;;5097763;28;20151;-56
2021/04/09 02:05:16;;;;;;;7.45;2.03;;;31.70;12.60;;;;;;5098936;28;20131;-57
2021/04/09 02:07:43;;;;;;;9.65;2.50;;;31.60;12.60;;;;;;5095455;28;20068;-57
2021/04/09 02:10:11;;;;;;;9.77;3.10;;;31.50;12.60;;;;;;5094781;28;20297;-59
2021/04/09 02:12:39;;;;;;;12.25;2.78;;;31.40;12.80;;;;;;5095529;28;20108;-59
2021/04/09 02:15:15;;;;;;;14.68;2.15;;;31.30;12.70;;;;;;5090929;28;20108;-56
2021/04/09 02:17:42;;;;;;;10.82;2.13;;;31.30;12.80;;;;;;5092666;28;20437;-55
2021/04/09 02:20:11;;;;;;;8.80;2.03;;;31.30;12.90;;;;;;5080892;28;20571;-58
2021/04/09 02:22:39;;;;;;;6.10;2.08;;;31.20;12.80;;;;;;5094281;28;20080;-58
2021/04/09 02:25:07;;;;;;;13.27;1.80;;;31.10;12.90;;;;;;5096562;28;20154;-63
2021/04/09 02:27:34;;;;;;;12.63;2.30;;;31.10;13.00;;;;;;5095271;28;20077;-59
2021/04/09 02:30:01;;;;;;;7.63;2.08;;;31.00;13.00;;;;;;5090018;28;20088;-56
2021/04/09 02:32:28;;;;;;;11.10;2.45;;;30.90;13.00;;;;;;5091236;28;20123;-57
2021/04/09 02:35:01;;;;;;;8.77;2.28;;;30.90;13.00;;;;;;5095042;28;20073;-58
2021/04/09 02:37:28;;;;;;;13.77;2.17;;;30.80;13.10;;;;;;5079084;28;20187;-60
2021/04/09 02:39:59;;;;;;;13.02;1.92;;;30.80;13.10;;;;;;5092883;28;20077;-59
2021/04/09 02:42:25;;;;;;;7.65;1.83;;;30.70;13.10;;;;;;5093323;28;20069;-61
2021/04/09 02:44:55;;;;;;;10.75;2.20;;;30.70;13.20;;;;;;5095310;28;20448;-59
2021/04/09 02:47:29;;;;;;;7.55;1.77;;;30.60;13.20;;;;;;5096014;28;20069;-58
2021/04/09 02:49:59;;;;;;;8.60;1.63;;;30.60;13.30;;;;;;5093553;28;20077;-57
2021/04/09 02:52:39;;;;;;;12.43;2.22;;;30.40;13.20;;;;;;5092392;28;20141;-55
2021/04/09 02:55:14;;;;;;;13.27;2.60;;;30.40;13.40;;;;;;5092743;28;20085;-57
2021/04/09 02:57:44;;;;;;;13.75;2.88;;;30.30;13.50;;;;;;5091993;28;20095;-59
2021/04/09 03:00:11;;;;;;;8.85;1.77;;;30.20;13.60;;;;;;5074337;28;20079;-57
2021/04/09 03:02:40;;;;;;;9.32;1.83;;;30.10;13.70;;;;;;5090293;28;20478;-58
2021/04/09 03:05:09;;;;;;;13.85;2.30;;;30.10;13.70;;;;;;5095058;28;20138;-54
2021/04/09 03:07:38;;;;;;;11.93;2.20;;;30.10;13.80;;;;;;5077896;28;20080;-53
2021/04/09 03:10:08;;;;;;;10.55;2.45;;;30.00;13.90;;;;;;5092808;28;20130;-57
2021/04/09 03:12:35;;;;;;;10.13;1.98;;;30.00;14.10;;;;;;5091125;28;20641;-59
2021/04/09 03:15:03;;;;;;;8.48;2.10;;;29.90;14.00;;;;;;5091034;28;20076;-57
2021/04/09 03:17:41;;;;;;;13.18;2.00;;;29.80;14.10;;;;;;5092939;28;20537;-59
2021/04/09 03:20:08;;;;;;;11.50;2.38;;;29.70;14.10;;;;;;5099794;28;20081;-58
2021/04/09 03:22:35;;;;;;;12.27;2.38;;;29.70;14.20;;;;;;5093888;28;20547;-60
2021/04/09 03:25:01;;;;;;;10.18;2.38;;;29.60;14.20;;;;;;5097412;28;20073;-58
2021/04/09 03:27:34;;;;;;;14.48;2.85;;;29.60;14.40;;;;;;5091789;28;20108;-60
2021/04/09 03:30:01;;;;;;;13.23;2.97;;;29.50;14.40;;;;;;5074817;28;20079;-57
2021/04/09 03:32:27;;;;;;;11.93;2.35;;;29.40;14.50;;;;;;5075583;28;20145;-57
2021/04/09 03:34:54;;;;;;;9.40;2.40;;;29.30;14.40;;;;;;5094864;28;20500;-58
2021/04/09 03:37:20;;;;;;;16.42;3.22;;;29.30;14.40;;;;;;5092922;28;20193;-62
2021/04/09 03:39:47;;;;;;;16.77;2.67;;;29.30;14.40;;;;;;5073864;28;20152;-56
2021/04/09 03:42:13;;;;;;;15.95;2.70;;;29.20;14.40;;;;;;5092498;28;20081;-58
2021/04/09 03:44:40;;;;;;;13.23;2.00;;;29.20;14.40;;;;;;5081037;28;20421;-57
2021/04/09 03:47:06;;;;;;;15.05;2.35;;;29.20;14.20;;;;;;5091367;28;20137;-58
2021/04/09 03:49:33;;;;;;;12.68;2.63;;;29.10;14.20;;;;;;5098030;28;20079;-61
2021/04/09 03:52:01;;;;;;;20.77;2.72;;;29.10;14.20;;;;;;5096069;28;20141;-56
2021/04/09 03:54:28;;;;;;;15.38;3.35;;;29.00;14.20;;;;;;5096054;28;20536;-58
2021/04/09 03:56:54;;;;;;;9.40;3.10;;;29.00;14.20;;;;;;5092783;28;20092;-55
2021/04/09 03:59:21;;;;;;;7.93;2.42;;;28.90;14.20;;;;;;5090918;28;20106;-58
2021/04/09 04:01:47;;;;;;;12.63;3.03;;;28.90;14.40;;;;;;5093099;28;20068;-60
2021/04/09 04:04:14;;;;;;;16.52;3.03;;;28.80;14.20;;;;;;5094660;28;20467;-58
2021/04/09 04:06:40;;;;;;;9.68;2.00;;;28.80;14.20;;;;;;5093361;28;20104;-60
2021/04/09 04:09:07;;;;;;;10.63;2.10;;;28.70;14.10;;;;;;5093308;28;20436;-58
2021/04/09 04:11:33;;;;;;;10.38;2.30;;;28.70;13.90;;;;;;5092840;28;20107;-59
2021/04/09 04:14:00;;;;;;;11.98;2.30;;;28.70;14.00;;;;;;5093291;28;20088;-59
2021/04/09 04:16:26;;;;;;;12.88;2.08;;;28.70;13.90;;;;;;5095296;28;20121;-59
2021/04/09 04:18:53;;;;;;;12.15;2.00;;;28.60;13.90;;;;;;5102098;28;20077;-58
2021/04/09 04:21:20;;;;;;;9.25;1.88;;;28.50;13.80;;;;;;5094397;28;20119;-57
2021/04/09 04:23:47;;;;;;;8.02;2.22;;;28.50;13.90;;;;;;5096052;28;20190;-60
2021/04/09 04:26:13;;;;;;;11.23;2.50;;;28.50;13.80;;;;;;5097871;28;20060;-59
2021/04/09 04:28:40;;;;;;;13.93;2.70;;;28.40;13.90;;;;;;5096118;28;20119;-59
2021/04/09 04:31:06;;;;;;;11.52;2.70;;;28.40;13.60;;;;;;5092701;28;20095;-58
2021/04/09 04:33:33;;;;;;;10.02;2.35;;;28.40;13.80;;;;;;5093364;28;20083;-54
2021/04/09 04:36:01;;;;;;;13.13;3.60;;;28.30;13.50;;;;;;5091363;28;20432;-53
2021/04/09 04:38:28;;;;;;;11.70;3.03;;;28.30;13.60;;;;;;5094187;28;20101;-57
2021/04/09 04:40:54;;;;;;;24.65;4.07;;;28.20;13.70;;;;;;5098623;28;20083;-58
2021/04/09 04:43:21;;;;;;;13.52;3.90;;;28.10;13.70;;;;;;5095671;28;20102;-55
2021/04/09 04:45:48;;;;;;;26.98;6.13;;;28.10;13.80;;;;;;5097696;28;20064;-59
2021/04/09 04:48:14;;;;;;;13.57;4.95;;;28.00;13.70;;;;;;5096471;28;20541;-57
2021/04/09 04:50:41;;;;;;;25.05;9.40;;;27.90;14.10;;;;;;5098831;28;20084;-56
2021/04/09 04:53:07;;;;;;;30.95;16.45;;;27.80;14.10;;;;;;5096352;28;20103;-59
2021/04/09 04:55:34;;;;;;;27.30;16.48;;;27.70;14.30;;;;;;5099376;28;20122;-57
2021/04/09 04:58:00;;;;;;;37.70;23.10;;;27.50;14.40;;;;;;5098013;28;20179;-58
2021/04/09 05:00:27;;;;;;;17.80;10.57;;;27.50;14.60;;;;;;5102405;28;20080;-57
2021/04/09 05:02:54;;;;;;;24.45;11.48;;;27.40;14.40;;;;;;5103528;28;20104;-58
2021/04/09 05:05:21;;;;;;;24.20;8.77;;;27.40;14.40;;;;;;5099072;28;20104;-59
2021/04/09 05:07:48;;;;;;;17.40;4.63;;;27.30;14.40;;;;;;5102591;28;20428;-53
2021/04/09 05:10:14;;;;;;;8.90;2.60;;;27.30;14.30;;;;;;5099604;28;20084;-58
2021/04/09 05:12:41;;;;;;;16.35;2.72;;;27.30;14.20;;;;;;5100410;28;20116;-56
2021/04/09 05:15:08;;;;;;;9.73;2.45;;;27.20;14.20;;;;;;5099812;28;20069;-55
2021/04/09 05:17:38;;;;;;;13.60;2.20;;;27.20;14.00;;;;;;5099098;28;20457;-59
2021/04/09 05:20:06;;;;;;;18.98;2.53;;;27.20;13.90;;;;;;5099168;28;20475;-58
2021/04/09 05:22:33;;;;;;;6.53;1.88;;;27.20;13.50;;;;;;5099658;28;20102;-54
2021/04/09 05:24:59;;;;;;;11.23;2.25;;;27.30;13.40;;;;;;5102229;28;20082;-57
2021/04/09 05:27:26;;;;;;;15.27;2.03;;;27.30;13.20;;;;;;5100642;28;20108;-57
2021/04/09 05:29:52;;;;;;;8.13;1.90;;;27.30;13.00;;;;;;5095303;28;20089;-56
2021/04/09 05:32:19;;;;;;;12.60;2.33;;;27.30;13.00;;;;;;5098687;28;20080;-57
2021/04/09 05:34:45;;;;;;;12.05;2.40;;;27.30;13.00;;;;;;5103516;28;20420;-59
2021/04/09 05:37:12;;;;;;;10.95;1.92;;;27.30;13.00;;;;;;5093782;28;20101;-56
2021/04/09 05:39:38;;;;;;;10.40;1.73;;;27.30;12.90;;;;;;5098317;28;20065;-57
2021/04/09 05:42:06;;;;;;;6.55;1.83;;;27.30;12.90;;;;;;5095815;28;20131;-61
2021/04/09 05:44:34;;;;;;;8.52;1.55;;;27.30;13.00;;;;;;5095488;28;20096;-55
2021/04/09 05:47:08;;;;;;;7.55;2.00;;;27.30;13.10;;;;;;5094128;28;20401;-56
2021/04/09 05:49:35;;;;;;;14.60;2.88;;;27.30;13.10;;;;;;5096734;28;20072;-55
2021/04/09 05:52:06;;;;;;;13.80;2.25;;;27.30;13.10;;;;;;5096949;28;20076;-53
2021/04/09 05:54:37;;;;;;;7.63;1.83;;;27.30;13.30;;;;;;5096611;28;20073;-55
2021/04/09 05:57:04;;;;;;;10.35;1.90;;;27.20;13.20;;;;;;5094666;28;20579;-57
2021/04/09 05:59:30;;;;;;;8.00;1.88;;;27.20;13.30;;;;;;5091957;28;20085;-56
2021/04/09 06:01:57;;;;;;;9.07;2.30;;;27.20;13.20;;;;;;5094952;28;20115;-55
2021/04/09 06:04:24;;;;;;;6.97;1.70;;;27.20;13.30;;;;;;5094017;28;20085;-54
2021/04/09 06:06:50;;;;;;;5.72;2.00;;;27.20;13.40;;;;;;5097431;28;20507;-56
2021/04/09 06:09:16;;;;;;;7.22;1.73;;;27.10;13.30;;;;;;5095090;28;20077;-53
2021/04/09 06:11:43;;;;;;;8.52;2.08;;;27.10;13.30;;;;;;5096590;28;20104;-57
2021/04/09 06:14:10;;;;;;;10.82;1.80;;;27.10;13.30;;;;;;5098732;28;20069;-54
2021/04/09 06:16:36;;;;;;;9.90;2.00;;;27.10;13.20;;;;;;5094981;28;20084;-57
2021/04/09 06:19:03;;;;;;;8.23;1.83;;;27.00;13.30;;;;;;5099826;28;20581;-57
2021/04/09 06:21:30;;;;;;;9.45;1.75;;;27.00;13.30;;;;;;5081102;28;20153;-55
2021/04/09 06:23:57;;;;;;;4.85;1.60;;;27.00;13.40;;;;;;5094657;28;20091;-53
2021/04/09 06:26:24;;;;;;;12.30;2.10;;;27.00;13.40;;;;;;5093674;28;20076;-56
2021/04/09 06:28:52;;;;;;;7.15;1.55;;;26.90;13.30;;;;;;5092605;28;20088;-54
2021/04/09 06:31:18;;;;;;;8.52;1.90;;;26.90;13.50;;;;;;5094436;28;20542;-53
2021/04/09 06:33:45;;;;;;;10.80;1.75;;;26.90;13.30;;;;;;5093916;28;20134;-58
2021/04/09 06:36:11;;;;;;;5.93;1.55;;;26.90;13.40;;;;;;5099146;28;20551;-56
2021/04/09 06:38:38;;;;;;;11.52;1.80;;;26.90;13.40;;;;;;5093513;28;20468;-56
2021/04/09 06:41:04;;;;;;;7.55;1.60;;;26.80;13.40;;;;;;5098052;28;20095;-57
2021/04/09 06:43:31;;;;;;;8.85;1.83;;;26.90;13.60;;;;;;5089697;28;20088;-56
2021/04/09 06:45:58;;;;;;;7.38;1.55;;;26.90;13.40;;;;;;5096466;28;20095;-53
2021/04/09 06:48:24;;;;;;;5.60;1.48;;;26.90;13.50;;;;;;5092836;28;20076;-57
2021/04/09 06:50:51;;;;;;;6.47;1.85;;;26.80;13.50;;;;;;5092393;28;20084;-56
2021/04/09 06:53:18;;;;;;;5.85;1.58;;;26.80;13.60;;;;;;5092459;28;20088;-56
2021/04/09 06:55:46;;;;;;;7.35;1.65;;;26.80;13.60;;;;;;5096108;28;20155;-56
2021/04/09 06:58:16;;;;;;;10.50;1.63;;;26.60;13.60;;;;;;5095458;28;20587;-57
2021/04/09 07:00:45;;;;;;;11.15;1.80;;;26.50;13.70;;;;;;5097656;28;20069;-57
2021/04/09 07:03:13;;;;;;;12.15;2.13;;;26.60;14.00;;;;;;5094417;28;20072;-55
2021/04/09 07:05:40;;;;;;;10.18;1.77;;;26.60;13.90;;;;;;5094554;28;20081;-57
2021/04/09 07:08:06;;;;;;;8.60;2.03;;;26.40;13.90;;;;;;5094511;28;20069;-55
2021/04/09 07:10:33;;;;;;;5.47;2.05;;;26.30;14.00;;;;;;5095809;28;20078;-57
2021/04/09 07:13:07;;;;;;;4.25;1.70;;;26.30;14.10;;;;;;5074487;28;20116;-55
2021/04/09 07:15:41;;;;;;;6.75;1.60;;;26.30;14.30;;;;;;5073288;28;20071;-55
2021/04/09 07:18:10;;;;;;;14.20;7.03;;;26.30;14.30;;;;;;5077472;28;20096;-55
2021/04/09 07:20:38;;;;;;;34.90;21.88;;;26.30;14.70;;;;;;5072092;28;20081;-56
2021/04/09 07:23:07;;;;;;;15.98;7.90;;;26.30;14.50;;;;;;5074326;28;20080;-57
2021/04/09 07:25:45;;;;;;;10.98;4.28;;;26.20;14.60;;;;;;5076672;28;20163;-58
2021/04/09 07:28:18;;;;;;;18.35;8.88;;;26.10;14.70;;;;;;5073243;28;20075;-57
2021/04/09 07:30:50;;;;;;;11.43;5.85;;;26.10;14.70;;;;;;5072163;28;20088;-56
2021/04/09 07:33:23;;;;;;;11.55;5.00;;;26.00;14.80;;;;;;5073867;28;20112;-53
2021/04/09 07:35:51;;;;;;;13.43;7.70;;;25.90;14.90;;;;;;5077397;28;20101;-57
2021/04/09 07:38:22;;;;;;;14.55;5.22;;;25.80;15.50;;;;;;5077986;28;20101;-55
2021/04/09 07:41:11;;;;;;;5.50;1.80;;;25.70;15.10;;;;;;5076150;28;20069;-56
2021/04/09 07:43:45;;;;;;;4.63;1.50;;;25.60;15.30;;;;;;5067120;28;20089;-56
2021/04/09 07:46:22;;;;;;;8.40;1.70;;;25.30;15.50;;;;;;5073364;28;20129;-57
2021/04/09 07:49:00;;;;;;;5.80;1.20;;;25.30;15.70;;;;;;5079506;28;20073;-58
2021/04/09 07:51:26;;;;;;;5.32;1.55;;;25.30;15.70;;;;;;5070328;28;20072;-57
2021/04/09 07:53:53;;;;;;;3.78;1.73;;;25.30;15.70;;;;;;5077684;28;20101;-57
2021/04/09 07:56:20;;;;;;;5.47;1.55;;;25.20;15.80;;;;;;5073438;28;20153;-55
2021/04/09 07:58:54;;;;;;;5.25;1.38;;;25.10;15.70;;;;;;5074270;28;20101;-58
2021/04/09 08:01:22;;;;;;;7.30;1.50;;;25.10;15.70;;;;;;5080965;28;20100;-56
2021/04/09 08:03:49;;;;;;;8.90;1.40;;;25.20;15.80;;;;;;5072264;28;20515;-57
2021/04/09 08:06:20;;;;;;;5.50;1.20;;;25.20;15.80;;;;;;5070347;28;20093;-56
2021/04/09 08:08:46;;;;;;;7.65;1.60;;;25.20;15.70;;;;;;5071240;28;20100;-56
2021/04/09 08:11:35;;;;;;;6.50;1.30;;;25.10;15.60;;;;;;5074091;28;20122;-55
2021/04/09 08:14:22;;;;;;;5.43;1.20;;;25.10;15.60;;;;;;5093335;28;20073;-55
2021/04/09 08:16:50;;;;;;;6.22;1.30;;;25.10;15.00;;;;;;5094806;28;20075;-55
2021/04/09 08:19:26;;;;;;;5.20;1.80;;;25.10;15.00;;;;;;5093593;28;20095;-55
2021/04/09 08:21:57;;;;;;;5.83;1.33;;;25.10;15.50;;;;;;5097033;28;20159;-57
2021/04/09 08:24:31;;;;;;;4.82;1.40;;;25.20;15.40;;;;;;5095785;28;20474;-55
2021/04/09 08:26:59;;;;;;;4.75;1.52;;;25.20;15.50;;;;;;5096020;28;20520;-57
2021/04/09 08:29:27;;;;;;;4.65;1.77;;;25.00;15.20;;;;;;5093355;28;20110;-53
2021/04/09 08:31:55;;;;;;;6.55;1.70;;;25.00;15.70;;;;;;5091004;28;20163;-52
2021/04/09 08:34:22;;;;;;;6.75;1.30;;;25.10;15.90;;;;;;5092365;28;20524;-52
2021/04/09 08:36:51;;;;;;;6.53;1.58;;;25.70;17.70;;;;;;5095785;28;20098;-52
2021/04/09 08:39:19;;;;;;;4.72;1.35;;;24.90;16.30;;;;;;5097839;28;20103;-52
2021/04/09 08:41:50;;;;;;;4.95;1.60;;;24.80;15.80;;;;;;5095914;28;20476;-52
2021/04/09 08:44:17;;;;;;;7.30;1.70;;;24.80;15.80;;;;;;5091423;28;20160;-53
2021/04/09 08:46:45;;;;;;;7.32;1.80;;;24.80;16.30;;;;;;5092682;28;20077;-52
2021/04/09 08:49:14;;;;;;;5.30;1.40;;;24.80;16.40;;;;;;5091475;28;20555;-56
2021/04/09 08:51:43;;;;;;;8.63;1.33;;;24.70;16.10;;;;;;5092029;28;20073;-55
2021/04/09 08:54:16;;;;;;;8.07;1.48;;;;;;;;;;5089187;28;20071;-56
2021/04/09 08:56:42;;;;;;;6.45;1.58;;;24.60;16.40;;;;;;5094865;28;20076;-55
2021/04/09 08:59:09;;;;;;;5.93;1.48;;;24.60;16.40;;;;;;5090202;28;20162;-56
2021/04/09 09:01:35;;;;;;;7.93;1.50;;;24.60;16.40;;;;;;5093382;28;20035;-54
2021/04/09 09:04:20;;;;;;;7.35;2.45;;;24.50;43.90;;;;;;5091426;28;20152;-58
2021/04/09 09:06:49;;;;;;;7.18;2.72;;;24.50;16.40;;;;;;5092035;28;20028;-51
2021/04/09 09:09:32;;;;;;;6.30;2.13;;;24.80;28.10;;;;;;5091226;28;20175;-56
2021/04/09 09:12:04;;;;;;;5.88;3.00;;;24.50;16.40;;;;;;5090993;28;20044;-56
2021/04/09 09:14:33;;;;;;;11.45;4.20;;;24.50;16.80;;;;;;5094135;28;20499;-54
2021/04/09 09:17:19;;;;;;;11.80;4.75;;;;;;;;;;5099062;28;20030;-54
2021/04/09 09:20:13;;;;;;;9.10;2.45;;;24.40;16.20;;;;;;5095189;28;20103;-55
2021/04/09 09:22:47;;;;;;;7.38;1.67;;;24.40;16.70;;;;;;5088825;28;20084;-54
2021/04/09 09:25:14;;;;;;;4.45;1.50;;;24.40;16.80;;;;;;5097689;28;20159;-54
2021/04/09 09:27:49;;;;;;;6.45;1.70;;;24.40;16.90;;;;;;5095937;28;20069;-53
2021/04/09 09:30:37;;;;;;;4.45;1.40;;;24.30;16.80;;;;;;5098125;28;20136;-53
2021/04/09 09:33:25;;;;;;;6.93;1.77;;;24.30;16.90;;;;;;5095677;28;20107;-57
2021/04/09 09:36:01;;;;;;;;;;;24.30;16.90;;;;;;5077228;28;20106;-57
2021/04/09 09:38:47;;;;;;;5.30;1.40;;;24.30;17.00;;;;;;5093470;28;19976;-56
2021/04/09 09:41:47;;;;;;;6.50;1.10;;;24.20;16.70;;;;;;5097971;28;20072;-57
2021/04/09 09:44:32;;;;;;;5.55;1.60;;;24.10;25.00;;;;;;5099933;28;20033;-57
2021/04/09 09:47:01;;;;;;;7.80;1.75;;;24.20;17.30;;;;;;5095279;28;20084;-56
2021/04/09 09:49:34;;;;;;;4.38;1.45;;;24.10;17.50;;;;;;5097117;28;20088;-53
2021/04/09 09:52:01;;;;;;;6.03;1.35;;;24.10;17.60;;;;;;5097093;28;20069;-56
2021/04/09 09:54:30;;;;;;;4.97;1.70;;;24.00;17.70;;;;;;5096281;28;20080;-57
2021/04/09 09:56:58;;;;;;;8.60;1.90;;;24.00;17.90;;;;;;5098641;28;20450;-56
2021/04/09 09:59:27;;;;;;;8.18;4.47;;;23.90;18.10;;;;;;5097118;28;20091;-57
2021/04/09 10:01:59;;;;;;;11.93;7.53;;;23.80;18.30;;;;;;5094301;28;20495;-56
2021/04/09 10:04:26;;;;;;;19.08;12.45;;;23.80;18.40;;;;;;5094650;28;20080;-57
2021/04/09 10:06:53;;;;;;;23.27;14.65;;;23.80;18.40;;;;;;5095692;28;20555;-58
2021/04/09 10:09:31;;;;;;;22.65;13.93;;;23.20;18.20;;;;;;5093947;28;20073;-57
2021/04/09 10:11:59;;;;;;;28.05;16.80;;;23.70;18.40;;;;;;5100189;28;20131;-58
2021/04/09 10:14:27;;;;;;;40.70;19.45;;;23.60;18.20;;;;;;5091841;28;20190;-57
2021/04/09 10:17:01;;;;;;;43.90;21.80;;;23.60;17.70;;;;;;5092308;28;20072;-55
2021/04/09 10:19:27;;;;;;;41.17;18.27;;;23.70;18.00;;;;;;5097182;28;20089;-57
2021/04/09 10:21:54;;;;;;;28.80;13.68;;;23.70;17.70;;;;;;5095335;28;20195;-58
2021/04/09 10:24:22;;;;;;;16.45;6.45;;;23.70;18.20;;;;;;5097619;28;20161;-57
2021/04/09 10:26:58;;;;;;;13.38;3.10;;;23.70;18.20;;;;;;5096801;28;20069;-56
2021/04/09 10:29:33;;;;;;;8.25;1.88;;;23.70;18.00;;;;;;5094215;28;20067;-54
2021/04/09 10:32:01;;;;;;;10.75;1.92;;;23.70;18.00;;;;;;5097371;28;20126;-58
2021/04/09 10:34:34;;;;;;;2.75;1.60;;;23.60;18.00;;;;;;5094833;28;20084;-56
2021/04/09 10:37:02;;;;;;;7.47;1.67;;;23.50;18.20;;;;;;5092047;28;20087;-56
2021/04/09 10:39:29;;;;;;;6.63;2.00;;;23.50;17.70;;;;;;5098178;28;20058;-56
2021/04/09 10:41:57;;;;;;;13.40;2.20;;;23.50;17.90;;;;;;5094320;28;20087;-57
2021/04/09 10:44:29;;;;;;;6.85;1.63;;;;;;;;;;5094091;28;20024;-56
2021/04/09 10:47:03;;;;;;;6.97;1.77;;;23.50;17.90;;;;;;5094323;28;20024;-54
2021/04/09 10:49:34;;;;;;;6.13;1.65;;;23.50;18.10;;;;;;5097070;28;20625;-57
2021/04/09 10:52:06;;;;;;;12.50;2.17;;;23.50;18.50;;;;;;5093368;28;20084;-55
2021/04/09 10:54:34;;;;;;;9.38;1.70;;;23.40;18.60;;;;;;5093955;28;20140;-56
2021/04/09 10:57:06;;;;;;;7.30;1.80;;;23.40;18.70;;;;;;5095876;28;20536;-54
2021/04/09 10:59:38;;;;;;;11.77;2.05;;;23.30;18.60;;;;;;5096946;28;20086;-55
2021/04/09 11:02:17;;;;;;;6.30;1.80;;;23.20;18.20;;;;;;5096297;28;20068;-57
2021/04/09 11:04:50;;;;;;;9.70;2.08;;;23.30;18.50;;;;;;5091787;28;20528;-57
2021/04/09 11:07:17;;;;;;;5.75;1.80;;;23.30;18.40;;;;;;5091657;28;20094;-54
2021/04/09 11:09:47;;;;;;;8.95;2.08;;;23.30;18.30;;;;;;5091361;28;20148;-55
2021/04/09 11:12:24;;;;;;;5.78;1.75;;;23.40;18.30;;;;;;5095278;28;20199;-57
2021/04/09 11:14:52;;;;;;;8.07;1.70;;;23.40;18.20;;;;;;5098145;28;20069;-54
2021/04/09 11:17:24;;;;;;;7.93;1.90;;;23.40;18.20;;;;;;5093217;28;20176;-58
2021/04/09 11:19:55;;;;;;;9.07;1.80;;;23.30;18.30;;;;;;5094713;28;20083;-53
2021/04/09 11:22:23;;;;;;;4.32;1.77;;;23.30;18.20;;;;;;5095523;28;20168;-54
2021/04/09 11:24:58;;;;;;;5.95;1.35;;;23.30;18.00;;;;;;5095913;28;20517;-56
2021/04/09 11:27:33;;;;;;;5.55;1.85;;;23.30;18.10;;;;;;5096623;28;20072;-54
2021/04/09 11:30:19;;;;;;;7.70;1.70;;;23.30;18.20;;;;;;5095632;28;20076;-55
2021/04/09 11:32:50;;;;;;;8.90;1.98;;;23.30;18.10;;;;;;5090240;28;20130;-52
2021/04/09 11:35:19;;;;;;;7.90;1.80;;;23.20;18.00;;;;;;5091543;28;20125;-55
2021/04/09 11:37:49;;;;;;;7.53;1.70;;;23.20;18.00;;;;;;5092458;28;20510;-57
2021/04/09 11:40:33;;;;;;;8.88;1.63;;;23.20;18.00;;;;;;5094673;28;20108;-56
2021/04/09 11:43:00;;;;;;;6.88;1.48;;;23.20;18.00;;;;;;5093594;28;20408;-57
2021/04/09 11:45:47;;;;;;;6.88;1.50;;;23.20;18.00;;;;;;5092458;28;20122;-55
2021/04/09 11:48:33;;;;;;;10.82;1.67;;;23.20;18.40;;;;;;5095487;28;20092;-55
2021/04/09 11:51:22;;;;;;;5.05;1.40;;;23.20;18.70;;;;;;5094933;28;20084;-56
2021/04/09 11:54:02;;;;;;;7.00;1.63;;;23.10;19.40;;;;;;5096079;28;20195;-55
2021/04/09 11:56:49;;;;;;;7.32;1.83;;;23.00;19.10;;;;;;5092958;28;20065;-57
2021/04/09 11:59:20;;;;;;;10.93;1.98;;;22.90;19.50;;;;;;5090783;28;20089;-54
2021/04/09 12:01:50;;;;;;;14.43;2.13;;;22.70;19.90;;;;;;5092113;28;20069;-56
2021/04/09 12:04:40;;;;;;;12.95;2.15;;;22.60;20.50;;;;;;5092136;28;20096;-57
2021/04/09 12:07:14;;;;;;;10.43;2.55;;;22.40;21.10;;;;;;5092769;28;20528;-54
2021/04/09 12:09:43;;;;;;;13.88;2.80;;;22.40;22.30;;;;;;5089279;28;20429;-52
2021/04/09 12:12:15;;;;;;;14.30;2.05;;;22.30;22.90;;;;;;5093219;28;20179;-53
2021/04/09 12:14:44;;;;;;;12.52;2.45;;;22.30;23.20;;;;;;5095269;28;20151;-53
2021/04/09 12:17:12;;;;;;;14.40;2.85;;;22.10;23.90;;;;;;5093352;28;20088;-54
2021/04/09 12:19:39;;;;;;;11.85;2.78;;;22.10;23.40;;;;;;5093216;28;20112;-53
2021/04/09 12:22:07;;;;;;;13.88;2.35;;;22.10;23.20;;;;;;5094799;28;20073;-53
2021/04/09 12:24:33;;;;;;;10.52;2.05;;;22.00;23.10;;;;;;5075226;28;20105;-55
2021/04/09 12:27:00;;;;;;;14.25;2.47;;;22.00;23.00;;;;;;5094328;28;20077;-57
2021/04/09 12:29:26;;;;;;;18.45;2.25;;;22.00;23.70;;;;;;5094925;28;20077;-53
2021/04/09 12:31:53;;;;;;;12.48;2.50;;;21.90;24.00;;;;;;5091516;28;20089;-53
2021/04/09 12:34:20;;;;;;;6.88;1.80;;;21.80;23.80;;;;;;5094300;28;20079;-52
2021/04/09 12:36:47;;;;;;;12.90;2.70;;;21.80;24.00;;;;;;5096884;28;20489;-54
2021/04/09 12:39:15;;;;;;;13.63;2.40;;;21.70;23.30;;;;;;5090111;28;20510;-56
2021/04/09 12:41:42;;;;;;;14.15;2.38;;;21.70;23.40;;;;;;5098402;28;20077;-53
2021/04/09 12:44:11;;;;;;;10.00;1.90;;;21.70;23.30;;;;;;5094639;28;20163;-56
2021/04/09 12:46:38;;;;;;;7.60;2.22;;;21.60;23.40;;;;;;5097123;28;20064;-56
2021/04/09 12:49:04;;;;;;;9.80;2.35;;;21.60;23.40;;;;;;5095655;28;20077;-57
2021/04/09 12:51:32;;;;;;;11.55;2.38;;;21.50;23.40;;;;;;5089483;28;20107;-58
2021/04/09 12:53:59;;;;;;;14.82;2.85;;;21.40;23.30;;;;;;5094163;28;20095;-55
2021/04/09 12:56:25;;;;;;;13.82;2.80;;;21.40;23.40;;;;;;5093618;28;20107;-53
2021/04/09 12:58:52;;;;;;;14.80;2.38;;;21.40;23.60;;;;;;5095031;28;20108;-55